sensor_id;sensor_type;location;lat;lon;timestamp;P1;durP1;ratioP1;P2;durP2;ratioP2
77457;SDS011;66541;49.346;8.648;2023-04-09T00:00:20;8.25;;;2.50;;
77457;SDS011;66541;49.346;8.648;2023-04-09T00:02:45;9.60;;;3.00;;
77457;SDS011;66541;49.346;8.648;2023-04-09T00:05:11;9.25;;;2.80;;
77457;SDS011;66541;49.346;8.648;2023-04-09T00:07:36;9.45;;;2.97;;
77457;SDS011;66541;49.346;8.648;2023-04-09T00:10:01;9.02;;;2.97;;
77457;SDS011;66541;49.346;8.648;2023-04-09T00:12:27;9.75;;;2.55;;
77457;SDS011;66541;49.346;8.648;2023-04-09T00:14:54;11.25;;;3.00;;
77457;SDS011;66541;49.346;8.648;2023-04-09T00:17:19;9.95;;;3.28;;
77457;SDS011;66541;49.346;8.648;2023-04-09T00:19:45;10.32;;;3.20;;
77457;SDS011;66541;49.346;8.648;2023-04-09T00:22:10;12.70;;;4.03;;
77457;SDS011;66541;49.346;8.648;2023-04-09T00:24:36;11.23;;;3.15;;
77457;SDS011;66541;49.346;8.648;2023-04-09T00:27:01;10.13;;;3.50;;
77457;SDS011;66541;49.346;8.648;2023-04-09T00:29:26;10.55;;;3.40;;
77457;SDS011;66541;49.346;8.648;2023-04-09T00:31:51;10.55;;;3.53;;
77457;SDS011;66541;49.346;8.648;2023-04-09T00:34:17;10.73;;;3.90;;
77457;SDS011;66541;49.346;8.648;2023-04-09T00:36:42;11.75;;;3.75;;
77457;SDS011;66541;49.346;8.648;2023-04-09T00:39:07;10.82;;;3.30;;
77457;SDS011;66541;49.346;8.648;2023-04-09T00:41:33;10.18;;;3.28;;
77457;SDS011;66541;49.346;8.648;2023-04-09T00:43:58;10.05;;;3.20;;
77457;SDS011;66541;49.346;8.648;2023-04-09T00:46:23;9.85;;;2.85;;
77457;SDS011;66541;49.346;8.648;2023-04-09T00:48:49;11.05;;;3.38;;
77457;SDS011;66541;49.346;8.648;2023-04-09T00:51:15;9.43;;;3.00;;
77457;SDS011;66541;49.346;8.648;2023-04-09T00:53:40;10.85;;;3.15;;
77457;SDS011;66541;49.346;8.648;2023-04-09T00:56:07;10.20;;;3.45;;
77457;SDS011;66541;49.346;8.648;2023-04-09T00:58:34;9.40;;;2.85;;
77457;SDS011;66541;49.346;8.648;2023-04-09T01:01:00;11.52;;;3.42;;
77457;SDS011;66541;49.346;8.648;2023-04-09T01:03:25;11.75;;;3.92;;
77457;SDS011;66541;49.346;8.648;2023-04-09T01:08:44;11.18;;;3.33;;
77457;SDS011;66541;49.346;8.648;2023-04-09T01:11:33;10.60;;;3.72;;
77457;SDS011;66541;49.346;8.648;2023-04-09T01:14:07;11.50;;;4.10;;
77457;SDS011;66541;49.346;8.648;2023-04-09T01:16:43;11.70;;;3.83;;
77457;SDS011;66541;49.346;8.648;2023-04-09T01:19:10;9.95;;;3.70;;
77457;SDS011;66541;49.346;8.648;2023-04-09T01:27:12;10.73;;;3.72;;
77457;SDS011;66541;49.346;8.648;2023-04-09T01:29:40;10.88;;;3.53;;
77457;SDS011;66541;49.346;8.648;2023-04-09T01:32:09;13.32;;;3.75;;
77457;SDS011;66541;49.346;8.648;2023-04-09T01:34:35;10.85;;;3.92;;
77457;SDS011;66541;49.346;8.648;2023-04-09T01:37:02;11.13;;;4.03;;
77457;SDS011;66541;49.346;8.648;2023-04-09T01:39:28;11.30;;;4.07;;
77457;SDS011;66541;49.346;8.648;2023-04-09T01:41:53;10.80;;;3.22;;
77457;SDS011;66541;49.346;8.648;2023-04-09T01:44:20;12.70;;;4.18;;
77457;SDS011;66541;49.346;8.648;2023-04-09T01:46:46;11.80;;;3.75;;
77457;SDS011;66541;49.346;8.648;2023-04-09T01:49:12;11.05;;;4.03;;
77457;SDS011;66541;49.346;8.648;2023-04-09T01:51:38;11.88;;;4.32;;
77457;SDS011;66541;49.346;8.648;2023-04-09T01:54:03;11.93;;;4.53;;
77457;SDS011;66541;49.346;8.648;2023-04-09T01:56:45;12.07;;;3.85;;
77457;SDS011;66541;49.346;8.648;2023-04-09T01:59:11;9.57;;;3.38;;
77457;SDS011;66541;49.346;8.648;2023-04-09T02:01:43;11.75;;;4.35;;
77457;SDS011;66541;49.346;8.648;2023-04-09T02:04:32;11.68;;;4.22;;
77457;SDS011;66541;49.346;8.648;2023-04-09T02:12:02;12.80;;;4.38;;
77457;SDS011;66541;49.346;8.648;2023-04-09T02:14:28;10.50;;;3.63;;
77457;SDS011;66541;49.346;8.648;2023-04-09T02:16:55;12.65;;;4.30;;
77457;SDS011;66541;49.346;8.648;2023-04-09T02:19:21;11.07;;;3.75;;
77457;SDS011;66541;49.346;8.648;2023-04-09T02:21:46;11.85;;;4.43;;
77457;SDS011;66541;49.346;8.648;2023-04-09T02:24:11;12.00;;;4.22;;
77457;SDS011;66541;49.346;8.648;2023-04-09T02:26:36;10.65;;;3.97;;
77457;SDS011;66541;49.346;8.648;2023-04-09T02:29:02;12.88;;;4.47;;
77457;SDS011;66541;49.346;8.648;2023-04-09T02:31:27;12.90;;;4.18;;
77457;SDS011;66541;49.346;8.648;2023-04-09T02:33:53;12.93;;;4.55;;
77457;SDS011;66541;49.346;8.648;2023-04-09T02:36:18;11.43;;;4.03;;
77457;SDS011;66541;49.346;8.648;2023-04-09T02:38:43;12.73;;;4.63;;
77457;SDS011;66541;49.346;8.648;2023-04-09T02:41:09;11.00;;;3.80;;
77457;SDS011;66541;49.346;8.648;2023-04-09T02:43:34;13.20;;;4.25;;
77457;SDS011;66541;49.346;8.648;2023-04-09T02:46:00;12.85;;;4.13;;
77457;SDS011;66541;49.346;8.648;2023-04-09T02:48:25;12.45;;;4.63;;
77457;SDS011;66541;49.346;8.648;2023-04-09T02:50:50;11.95;;;3.92;;
77457;SDS011;66541;49.346;8.648;2023-04-09T02:53:16;11.90;;;4.47;;
77457;SDS011;66541;49.346;8.648;2023-04-09T02:55:41;11.90;;;4.25;;
77457;SDS011;66541;49.346;8.648;2023-04-09T02:58:06;11.10;;;4.25;;
77457;SDS011;66541;49.346;8.648;2023-04-09T03:00:32;11.45;;;3.92;;
77457;SDS011;66541;49.346;8.648;2023-04-09T03:02:57;11.88;;;4.63;;
77457;SDS011;66541;49.346;8.648;2023-04-09T03:05:22;13.82;;;4.20;;
77457;SDS011;66541;49.346;8.648;2023-04-09T03:07:48;12.05;;;4.15;;
77457;SDS011;66541;49.346;8.648;2023-04-09T03:10:13;12.55;;;4.20;;
77457;SDS011;66541;49.346;8.648;2023-04-09T03:12:39;12.35;;;4.50;;
77457;SDS011;66541;49.346;8.648;2023-04-09T03:15:04;12.07;;;4.20;;
77457;SDS011;66541;49.346;8.648;2023-04-09T03:17:30;13.82;;;4.80;;
77457;SDS011;66541;49.346;8.648;2023-04-09T03:19:56;13.95;;;4.82;;
77457;SDS011;66541;49.346;8.648;2023-04-09T03:22:21;13.77;;;5.15;;
77457;SDS011;66541;49.346;8.648;2023-04-09T03:24:47;14.60;;;5.30;;
77457;SDS011;66541;49.346;8.648;2023-04-09T03:27:12;14.95;;;5.13;;
77457;SDS011;66541;49.346;8.648;2023-04-09T03:29:38;13.98;;;4.65;;
77457;SDS011;66541;49.346;8.648;2023-04-09T03:32:03;14.45;;;5.30;;
77457;SDS011;66541;49.346;8.648;2023-04-09T03:34:28;13.40;;;4.57;;
77457;SDS011;66541;49.346;8.648;2023-04-09T03:36:54;14.32;;;4.85;;
77457;SDS011;66541;49.346;8.648;2023-04-09T03:39:19;12.02;;;4.60;;
77457;SDS011;66541;49.346;8.648;2023-04-09T03:41:44;14.32;;;5.22;;
77457;SDS011;66541;49.346;8.648;2023-04-09T03:44:10;13.38;;;5.03;;
77457;SDS011;66541;49.346;8.648;2023-04-09T03:46:35;15.00;;;5.18;;
77457;SDS011;66541;49.346;8.648;2023-04-09T03:49:01;13.70;;;5.05;;
77457;SDS011;66541;49.346;8.648;2023-04-09T03:51:26;12.43;;;5.07;;
77457;SDS011;66541;49.346;8.648;2023-04-09T03:53:51;13.60;;;5.03;;
77457;SDS011;66541;49.346;8.648;2023-04-09T03:56:17;13.50;;;5.15;;
77457;SDS011;66541;49.346;8.648;2023-04-09T03:58:42;13.70;;;4.65;;
77457;SDS011;66541;49.346;8.648;2023-04-09T04:01:07;14.90;;;5.15;;
77457;SDS011;66541;49.346;8.648;2023-04-09T04:03:32;13.68;;;5.35;;
77457;SDS011;66541;49.346;8.648;2023-04-09T04:06:01;14.70;;;5.80;;
77457;SDS011;66541;49.346;8.648;2023-04-09T04:08:27;14.77;;;5.47;;
77457;SDS011;66541;49.346;8.648;2023-04-09T04:10:52;13.35;;;4.90;;
77457;SDS011;66541;49.346;8.648;2023-04-09T04:13:18;13.70;;;4.85;;
77457;SDS011;66541;49.346;8.648;2023-04-09T04:15:43;15.23;;;5.68;;
77457;SDS011;66541;49.346;8.648;2023-04-09T04:18:08;11.75;;;4.30;;
77457;SDS011;66541;49.346;8.648;2023-04-09T04:20:34;14.32;;;4.95;;
77457;SDS011;66541;49.346;8.648;2023-04-09T04:23:00;14.00;;;5.07;;
77457;SDS011;66541;49.346;8.648;2023-04-09T04:25:25;14.65;;;4.93;;
77457;SDS011;66541;49.346;8.648;2023-04-09T04:27:51;13.90;;;5.30;;
77457;SDS011;66541;49.346;8.648;2023-04-09T04:30:16;13.90;;;4.75;;
77457;SDS011;66541;49.346;8.648;2023-04-09T04:32:41;13.65;;;5.40;;
77457;SDS011;66541;49.346;8.648;2023-04-09T04:35:07;13.05;;;4.80;;
77457;SDS011;66541;49.346;8.648;2023-04-09T04:37:32;14.30;;;5.57;;
77457;SDS011;66541;49.346;8.648;2023-04-09T04:40:00;13.52;;;5.45;;
77457;SDS011;66541;49.346;8.648;2023-04-09T04:42:25;13.82;;;5.10;;
77457;SDS011;66541;49.346;8.648;2023-04-09T04:44:51;14.90;;;5.50;;
77457;SDS011;66541;49.346;8.648;2023-04-09T04:47:16;13.65;;;5.00;;
77457;SDS011;66541;49.346;8.648;2023-04-09T04:49:41;14.82;;;5.35;;
77457;SDS011;66541;49.346;8.648;2023-04-09T04:52:06;12.55;;;4.95;;
77457;SDS011;66541;49.346;8.648;2023-04-09T04:54:32;14.07;;;5.03;;
77457;SDS011;66541;49.346;8.648;2023-04-09T04:56:58;14.45;;;5.35;;
77457;SDS011;66541;49.346;8.648;2023-04-09T04:59:23;14.35;;;5.82;;
77457;SDS011;66541;49.346;8.648;2023-04-09T05:01:48;14.05;;;5.43;;
77457;SDS011;66541;49.346;8.648;2023-04-09T05:04:14;14.30;;;5.15;;
77457;SDS011;66541;49.346;8.648;2023-04-09T05:06:39;13.27;;;5.28;;
77457;SDS011;66541;49.346;8.648;2023-04-09T05:09:04;13.95;;;5.50;;
77457;SDS011;66541;49.346;8.648;2023-04-09T05:11:29;15.75;;;5.13;;
77457;SDS011;66541;49.346;8.648;2023-04-09T05:13:55;15.10;;;5.30;;
77457;SDS011;66541;49.346;8.648;2023-04-09T05:16:20;14.52;;;5.15;;
77457;SDS011;66541;49.346;8.648;2023-04-09T05:18:46;14.73;;;5.35;;
77457;SDS011;66541;49.346;8.648;2023-04-09T05:21:11;14.98;;;5.63;;
77457;SDS011;66541;49.346;8.648;2023-04-09T05:23:37;14.32;;;5.40;;
77457;SDS011;66541;49.346;8.648;2023-04-09T05:26:02;15.88;;;6.40;;
77457;SDS011;66541;49.346;8.648;2023-04-09T05:28:27;19.05;;;5.72;;
77457;SDS011;66541;49.346;8.648;2023-04-09T05:30:53;13.70;;;5.45;;
77457;SDS011;66541;49.346;8.648;2023-04-09T05:33:18;15.00;;;5.95;;
77457;SDS011;66541;49.346;8.648;2023-04-09T05:35:43;13.10;;;4.65;;
77457;SDS011;66541;49.346;8.648;2023-04-09T05:38:09;13.80;;;5.60;;
77457;SDS011;66541;49.346;8.648;2023-04-09T05:40:35;14.43;;;5.78;;
77457;SDS011;66541;49.346;8.648;2023-04-09T05:43:00;14.88;;;5.80;;
77457;SDS011;66541;49.346;8.648;2023-04-09T05:45:25;14.07;;;5.50;;
77457;SDS011;66541;49.346;8.648;2023-04-09T05:47:52;16.77;;;5.95;;
77457;SDS011;66541;49.346;8.648;2023-04-09T05:50:18;14.40;;;6.25;;
77457;SDS011;66541;49.346;8.648;2023-04-09T05:52:43;15.18;;;5.75;;
77457;SDS011;66541;49.346;8.648;2023-04-09T05:55:09;15.07;;;5.72;;
77457;SDS011;66541;49.346;8.648;2023-04-09T05:57:34;13.30;;;5.05;;
77457;SDS011;66541;49.346;8.648;2023-04-09T05:59:59;13.60;;;5.03;;
77457;SDS011;66541;49.346;8.648;2023-04-09T06:02:25;14.98;;;6.15;;
77457;SDS011;66541;49.346;8.648;2023-04-09T06:04:50;14.90;;;5.53;;
77457;SDS011;66541;49.346;8.648;2023-04-09T06:07:15;13.88;;;5.20;;
77457;SDS011;66541;49.346;8.648;2023-04-09T06:09:41;14.30;;;5.18;;
77457;SDS011;66541;49.346;8.648;2023-04-09T06:12:08;14.52;;;5.18;;
77457;SDS011;66541;49.346;8.648;2023-04-09T06:14:33;15.00;;;5.53;;
77457;SDS011;66541;49.346;8.648;2023-04-09T06:16:58;13.95;;;5.63;;
77457;SDS011;66541;49.346;8.648;2023-04-09T06:19:24;15.27;;;5.68;;
77457;SDS011;66541;49.346;8.648;2023-04-09T06:21:49;13.88;;;5.55;;
77457;SDS011;66541;49.346;8.648;2023-04-09T06:24:15;14.52;;;5.65;;
77457;SDS011;66541;49.346;8.648;2023-04-09T06:26:40;16.00;;;5.65;;
77457;SDS011;66541;49.346;8.648;2023-04-09T06:29:06;15.90;;;5.72;;
77457;SDS011;66541;49.346;8.648;2023-04-09T06:31:31;15.60;;;6.07;;
77457;SDS011;66541;49.346;8.648;2023-04-09T06:33:57;13.95;;;5.60;;
77457;SDS011;66541;49.346;8.648;2023-04-09T06:36:22;14.93;;;5.20;;
77457;SDS011;66541;49.346;8.648;2023-04-09T06:38:47;14.38;;;6.20;;
77457;SDS011;66541;49.346;8.648;2023-04-09T06:41:13;12.90;;;5.10;;
77457;SDS011;66541;49.346;8.648;2023-04-09T06:43:38;14.52;;;5.68;;
77457;SDS011;66541;49.346;8.648;2023-04-09T06:46:04;12.90;;;5.18;;
77457;SDS011;66541;49.346;8.648;2023-04-09T06:48:30;13.00;;;4.88;;
77457;SDS011;66541;49.346;8.648;2023-04-09T06:50:55;15.25;;;5.97;;
77457;SDS011;66541;49.346;8.648;2023-04-09T06:53:20;13.68;;;5.68;;
77457;SDS011;66541;49.346;8.648;2023-04-09T06:55:46;15.55;;;6.05;;
77457;SDS011;66541;49.346;8.648;2023-04-09T06:58:11;16.58;;;6.40;;
77457;SDS011;66541;49.346;8.648;2023-04-09T07:00:36;15.32;;;5.68;;
77457;SDS011;66541;49.346;8.648;2023-04-09T07:03:01;15.15;;;5.65;;
77457;SDS011;66541;49.346;8.648;2023-04-09T07:05:27;12.98;;;4.85;;
77457;SDS011;66541;49.346;8.648;2023-04-09T07:07:52;14.00;;;5.93;;
77457;SDS011;66541;49.346;8.648;2023-04-09T07:10:18;12.18;;;4.80;;
77457;SDS011;66541;49.346;8.648;2023-04-09T07:12:43;14.80;;;5.53;;
77457;SDS011;66541;49.346;8.648;2023-04-09T07:15:08;14.98;;;6.07;;
77457;SDS011;66541;49.346;8.648;2023-04-09T07:17:34;16.63;;;6.32;;
77457;SDS011;66541;49.346;8.648;2023-04-09T07:19:59;13.80;;;5.68;;
77457;SDS011;66541;49.346;8.648;2023-04-09T07:22:25;14.63;;;5.57;;
77457;SDS011;66541;49.346;8.648;2023-04-09T07:24:52;13.88;;;5.25;;
77457;SDS011;66541;49.346;8.648;2023-04-09T07:27:19;14.75;;;6.35;;
77457;SDS011;66541;49.346;8.648;2023-04-09T07:29:45;13.93;;;5.78;;
77457;SDS011;66541;49.346;8.648;2023-04-09T07:32:10;13.95;;;5.65;;
77457;SDS011;66541;49.346;8.648;2023-04-09T07:34:36;13.57;;;5.45;;
77457;SDS011;66541;49.346;8.648;2023-04-09T07:37:01;14.35;;;5.70;;
77457;SDS011;66541;49.346;8.648;2023-04-09T07:39:27;14.45;;;5.57;;
77457;SDS011;66541;49.346;8.648;2023-04-09T07:41:52;12.88;;;4.93;;
77457;SDS011;66541;49.346;8.648;2023-04-09T07:44:17;13.90;;;5.82;;
77457;SDS011;66541;49.346;8.648;2023-04-09T07:46:42;12.75;;;5.13;;
77457;SDS011;66541;49.346;8.648;2023-04-09T07:49:08;13.43;;;5.07;;
77457;SDS011;66541;49.346;8.648;2023-04-09T07:51:33;12.57;;;5.25;;
77457;SDS011;66541;49.346;8.648;2023-04-09T07:53:58;12.05;;;4.78;;
77457;SDS011;66541;49.346;8.648;2023-04-09T07:56:24;13.40;;;5.53;;
77457;SDS011;66541;49.346;8.648;2023-04-09T07:58:49;13.82;;;4.88;;
77457;SDS011;66541;49.346;8.648;2023-04-09T08:01:14;11.77;;;4.68;;
77457;SDS011;66541;49.346;8.648;2023-04-09T08:03:40;14.18;;;5.63;;
77457;SDS011;66541;49.346;8.648;2023-04-09T08:06:06;13.43;;;5.38;;
77457;SDS011;66541;49.346;8.648;2023-04-09T08:08:34;12.57;;;5.22;;
77457;SDS011;66541;49.346;8.648;2023-04-09T08:10:59;12.85;;;4.75;;
77457;SDS011;66541;49.346;8.648;2023-04-09T08:13:25;12.57;;;5.13;;
77457;SDS011;66541;49.346;8.648;2023-04-09T08:15:50;14.13;;;4.72;;
77457;SDS011;66541;49.346;8.648;2023-04-09T08:18:16;12.90;;;5.22;;
77457;SDS011;66541;49.346;8.648;2023-04-09T08:20:41;11.63;;;4.80;;
77457;SDS011;66541;49.346;8.648;2023-04-09T08:23:09;13.20;;;4.95;;
77457;SDS011;66541;49.346;8.648;2023-04-09T08:25:35;13.57;;;5.75;;
77457;SDS011;66541;49.346;8.648;2023-04-09T08:28:00;13.38;;;5.38;;
77457;SDS011;66541;49.346;8.648;2023-04-09T08:30:26;11.98;;;4.55;;
77457;SDS011;66541;49.346;8.648;2023-04-09T08:32:51;13.20;;;5.13;;
77457;SDS011;66541;49.346;8.648;2023-04-09T08:35:17;12.50;;;5.20;;
77457;SDS011;66541;49.346;8.648;2023-04-09T08:37:43;12.65;;;4.82;;
77457;SDS011;66541;49.346;8.648;2023-04-09T08:40:08;12.85;;;4.70;;
77457;SDS011;66541;49.346;8.648;2023-04-09T08:42:34;13.23;;;4.95;;
77457;SDS011;66541;49.346;8.648;2023-04-09T08:45:02;11.40;;;4.85;;
77457;SDS011;66541;49.346;8.648;2023-04-09T08:47:28;11.77;;;4.38;;
77457;SDS011;66541;49.346;8.648;2023-04-09T08:49:53;12.43;;;4.43;;
77457;SDS011;66541;49.346;8.648;2023-04-09T08:52:20;10.63;;;4.03;;
77457;SDS011;66541;49.346;8.648;2023-04-09T08:54:55;11.00;;;4.35;;
77457;SDS011;66541;49.346;8.648;2023-04-09T08:57:20;11.02;;;4.75;;
77457;SDS011;66541;49.346;8.648;2023-04-09T08:59:46;10.25;;;4.30;;
77457;SDS011;66541;49.346;8.648;2023-04-09T09:02:11;9.93;;;3.92;;
77457;SDS011;66541;49.346;8.648;2023-04-09T09:04:44;9.93;;;3.65;;
77457;SDS011;66541;49.346;8.648;2023-04-09T09:07:13;11.43;;;4.38;;
77457;SDS011;66541;49.346;8.648;2023-04-09T09:12:33;11.05;;;4.28;;
77457;SDS011;66541;49.346;8.648;2023-04-09T09:15:05;10.70;;;3.80;;
77457;SDS011;66541;49.346;8.648;2023-04-09T09:17:57;9.88;;;4.00;;
77457;SDS011;66541;49.346;8.648;2023-04-09T09:20:24;9.80;;;3.50;;
77457;SDS011;66541;49.346;8.648;2023-04-09T09:22:50;10.95;;;3.97;;
77457;SDS011;66541;49.346;8.648;2023-04-09T09:25:16;10.68;;;4.10;;
77457;SDS011;66541;49.346;8.648;2023-04-09T09:27:42;10.23;;;3.83;;
77457;SDS011;66541;49.346;8.648;2023-04-09T09:30:08;9.90;;;3.45;;
77457;SDS011;66541;49.346;8.648;2023-04-09T09:32:34;9.88;;;3.33;;
77457;SDS011;66541;49.346;8.648;2023-04-09T09:35:04;10.10;;;4.15;;
77457;SDS011;66541;49.346;8.648;2023-04-09T09:37:30;10.45;;;3.75;;
77457;SDS011;66541;49.346;8.648;2023-04-09T09:39:59;10.38;;;4.20;;
77457;SDS011;66541;49.346;8.648;2023-04-09T09:42:25;9.38;;;3.17;;
77457;SDS011;66541;49.346;8.648;2023-04-09T09:44:53;8.85;;;3.15;;
77457;SDS011;66541;49.346;8.648;2023-04-09T09:47:19;10.80;;;4.30;;
77457;SDS011;66541;49.346;8.648;2023-04-09T09:49:48;10.32;;;3.78;;
77457;SDS011;66541;49.346;8.648;2023-04-09T09:52:14;8.88;;;3.20;;
77457;SDS011;66541;49.346;8.648;2023-04-09T09:54:40;9.48;;;3.88;;
77457;SDS011;66541;49.346;8.648;2023-04-09T09:57:08;10.63;;;4.13;;
77457;SDS011;66541;49.346;8.648;2023-04-09T09:59:36;9.43;;;3.67;;
77457;SDS011;66541;49.346;8.648;2023-04-09T10:02:03;11.00;;;3.63;;
77457;SDS011;66541;49.346;8.648;2023-04-09T10:04:30;10.00;;;3.85;;
77457;SDS011;66541;49.346;8.648;2023-04-09T10:06:58;9.35;;;3.30;;
77457;SDS011;66541;49.346;8.648;2023-04-09T10:09:25;9.93;;;3.50;;
77457;SDS011;66541;49.346;8.648;2023-04-09T10:11:51;9.13;;;3.45;;
77457;SDS011;66541;49.346;8.648;2023-04-09T10:14:17;9.77;;;3.60;;
77457;SDS011;66541;49.346;8.648;2023-04-09T10:16:42;9.55;;;3.47;;
77457;SDS011;66541;49.346;8.648;2023-04-09T10:19:08;10.63;;;3.50;;
77457;SDS011;66541;49.346;8.648;2023-04-09T10:21:42;9.30;;;3.63;;
77457;SDS011;66541;49.346;8.648;2023-04-09T10:24:11;9.25;;;3.75;;
77457;SDS011;66541;49.346;8.648;2023-04-09T10:26:40;9.93;;;3.53;;
77457;SDS011;66541;49.346;8.648;2023-04-09T10:29:07;10.50;;;3.60;;
77457;SDS011;66541;49.346;8.648;2023-04-09T10:32:02;10.18;;;3.70;;
77457;SDS011;66541;49.346;8.648;2023-04-09T10:34:28;9.70;;;3.80;;
77457;SDS011;66541;49.346;8.648;2023-04-09T10:36:57;8.70;;;3.00;;
77457;SDS011;66541;49.346;8.648;2023-04-09T10:39:27;8.88;;;3.15;;
77457;SDS011;66541;49.346;8.648;2023-04-09T10:41:55;8.75;;;2.95;;
77457;SDS011;66541;49.346;8.648;2023-04-09T10:44:26;9.18;;;3.28;;
77457;SDS011;66541;49.346;8.648;2023-04-09T10:46:52;7.75;;;2.58;;
77457;SDS011;66541;49.346;8.648;2023-04-09T10:49:24;8.85;;;3.05;;
77457;SDS011;66541;49.346;8.648;2023-04-09T10:54:35;9.80;;;3.00;;
77457;SDS011;66541;49.346;8.648;2023-04-09T10:59:33;10.77;;;3.75;;
77457;SDS011;66541;49.346;8.648;2023-04-09T11:07:43;8.30;;;3.08;;
77457;SDS011;66541;49.346;8.648;2023-04-09T11:10:11;8.30;;;2.83;;
77457;SDS011;66541;49.346;8.648;2023-04-09T11:12:36;9.07;;;2.92;;
77457;SDS011;66541;49.346;8.648;2023-04-09T11:15:02;8.68;;;3.10;;
77457;SDS011;66541;49.346;8.648;2023-04-09T11:17:27;8.23;;;3.15;;
77457;SDS011;66541;49.346;8.648;2023-04-09T11:19:53;8.20;;;2.78;;
77457;SDS011;66541;49.346;8.648;2023-04-09T11:22:19;8.27;;;2.53;;
77457;SDS011;66541;49.346;8.648;2023-04-09T11:24:45;8.55;;;2.72;;
77457;SDS011;66541;49.346;8.648;2023-04-09T11:27:11;8.90;;;3.10;;
77457;SDS011;66541;49.346;8.648;2023-04-09T11:29:36;8.48;;;3.25;;
77457;SDS011;66541;49.346;8.648;2023-04-09T11:32:02;8.18;;;2.63;;
77457;SDS011;66541;49.346;8.648;2023-04-09T11:34:29;7.47;;;2.67;;
77457;SDS011;66541;49.346;8.648;2023-04-09T11:36:57;8.00;;;2.42;;
77457;SDS011;66541;49.346;8.648;2023-04-09T11:39:24;7.07;;;2.45;;
77457;SDS011;66541;49.346;8.648;2023-04-09T11:41:50;7.45;;;2.38;;
77457;SDS011;66541;49.346;8.648;2023-04-09T11:44:15;7.90;;;2.33;;
77457;SDS011;66541;49.346;8.648;2023-04-09T11:46:41;7.78;;;2.33;;
77457;SDS011;66541;49.346;8.648;2023-04-09T11:49:07;8.18;;;2.13;;
77457;SDS011;66541;49.346;8.648;2023-04-09T11:51:33;6.93;;;1.83;;
77457;SDS011;66541;49.346;8.648;2023-04-09T11:54:05;6.75;;;2.05;;
77457;SDS011;66541;49.346;8.648;2023-04-09T11:56:31;6.70;;;1.95;;
77457;SDS011;66541;49.346;8.648;2023-04-09T11:58:56;6.00;;;1.48;;
77457;SDS011;66541;49.346;8.648;2023-04-09T12:01:22;5.43;;;1.58;;
77457;SDS011;66541;49.346;8.648;2023-04-09T12:03:53;7.45;;;2.08;;
77457;SDS011;66541;49.346;8.648;2023-04-09T12:06:19;7.32;;;2.25;;
77457;SDS011;66541;49.346;8.648;2023-04-09T12:08:46;7.82;;;2.55;;
77457;SDS011;66541;49.346;8.648;2023-04-09T12:11:16;8.68;;;2.45;;
77457;SDS011;66541;49.346;8.648;2023-04-09T12:13:41;7.25;;;2.65;;
77457;SDS011;66541;49.346;8.648;2023-04-09T12:16:10;10.20;;;2.60;;
77457;SDS011;66541;49.346;8.648;2023-04-09T12:18:36;8.88;;;2.53;;
77457;SDS011;66541;49.346;8.648;2023-04-09T12:21:02;7.55;;;2.45;;
77457;SDS011;66541;49.346;8.648;2023-04-09T12:23:27;8.25;;;2.40;;
77457;SDS011;66541;49.346;8.648;2023-04-09T12:25:55;6.97;;;2.25;;
77457;SDS011;66541;49.346;8.648;2023-04-09T12:28:20;11.50;;;2.70;;
77457;SDS011;66541;49.346;8.648;2023-04-09T12:30:45;10.23;;;2.50;;
77457;SDS011;66541;49.346;8.648;2023-04-09T12:33:12;13.88;;;4.07;;
77457;SDS011;66541;49.346;8.648;2023-04-09T12:35:38;7.50;;;2.08;;
77457;SDS011;66541;49.346;8.648;2023-04-09T12:38:03;6.45;;;1.90;;
77457;SDS011;66541;49.346;8.648;2023-04-09T12:40:29;6.60;;;2.15;;
77457;SDS011;66541;49.346;8.648;2023-04-09T12:42:54;6.32;;;1.73;;
77457;SDS011;66541;49.346;8.648;2023-04-09T12:45:20;7.10;;;2.33;;
77457;SDS011;66541;49.346;8.648;2023-04-09T12:47:45;6.95;;;2.20;;
77457;SDS011;66541;49.346;8.648;2023-04-09T12:50:11;6.72;;;2.03;;
77457;SDS011;66541;49.346;8.648;2023-04-09T12:52:37;6.80;;;1.90;;
77457;SDS011;66541;49.346;8.648;2023-04-09T12:55:03;6.25;;;1.90;;
77457;SDS011;66541;49.346;8.648;2023-04-09T12:57:29;6.40;;;1.90;;
77457;SDS011;66541;49.346;8.648;2023-04-09T12:59:55;6.57;;;2.13;;
77457;SDS011;66541;49.346;8.648;2023-04-09T13:02:20;7.10;;;1.90;;
77457;SDS011;66541;49.346;8.648;2023-04-09T13:04:46;6.22;;;1.98;;
77457;SDS011;66541;49.346;8.648;2023-04-09T13:07:11;6.68;;;1.95;;
77457;SDS011;66541;49.346;8.648;2023-04-09T13:09:39;6.57;;;1.77;;
77457;SDS011;66541;49.346;8.648;2023-04-09T13:12:05;6.63;;;2.17;;
77457;SDS011;66541;49.346;8.648;2023-04-09T13:14:30;7.32;;;2.22;;
77457;SDS011;66541;49.346;8.648;2023-04-09T13:16:56;7.45;;;2.13;;
77457;SDS011;66541;49.346;8.648;2023-04-09T13:19:21;6.57;;;2.15;;
77457;SDS011;66541;49.346;8.648;2023-04-09T13:21:47;6.85;;;2.28;;
77457;SDS011;66541;49.346;8.648;2023-04-09T13:24:12;6.53;;;1.73;;
77457;SDS011;66541;49.346;8.648;2023-04-09T13:26:37;6.15;;;1.88;;
77457;SDS011;66541;49.346;8.648;2023-04-09T13:29:03;5.85;;;1.80;;
77457;SDS011;66541;49.346;8.648;2023-04-09T13:31:28;5.72;;;1.65;;
77457;SDS011;66541;49.346;8.648;2023-04-09T13:33:54;5.85;;;1.77;;
77457;SDS011;66541;49.346;8.648;2023-04-09T13:36:19;6.88;;;2.05;;
77457;SDS011;66541;49.346;8.648;2023-04-09T13:38:44;5.70;;;1.73;;
77457;SDS011;66541;49.346;8.648;2023-04-09T13:41:10;6.50;;;1.63;;
77457;SDS011;66541;49.346;8.648;2023-04-09T13:43:35;5.90;;;1.73;;
77457;SDS011;66541;49.346;8.648;2023-04-09T13:46:00;5.53;;;1.58;;
77457;SDS011;66541;49.346;8.648;2023-04-09T13:48:27;5.05;;;1.20;;
77457;SDS011;66541;49.346;8.648;2023-04-09T13:50:53;5.47;;;1.73;;
77457;SDS011;66541;49.346;8.648;2023-04-09T13:53:18;6.60;;;2.08;;
77457;SDS011;66541;49.346;8.648;2023-04-09T13:55:44;5.35;;;1.58;;
77457;SDS011;66541;49.346;8.648;2023-04-09T13:58:09;5.38;;;1.60;;
77457;SDS011;66541;49.346;8.648;2023-04-09T14:00:35;5.68;;;1.60;;
77457;SDS011;66541;49.346;8.648;2023-04-09T14:03:01;5.15;;;1.58;;
77457;SDS011;66541;49.346;8.648;2023-04-09T14:05:27;5.35;;;1.58;;
77457;SDS011;66541;49.346;8.648;2023-04-09T14:07:53;5.18;;;1.67;;
77457;SDS011;66541;49.346;8.648;2023-04-09T14:10:18;5.88;;;1.60;;
77457;SDS011;66541;49.346;8.648;2023-04-09T14:12:43;5.20;;;1.58;;
77457;SDS011;66541;49.346;8.648;2023-04-09T14:15:09;4.93;;;1.42;;
77457;SDS011;66541;49.346;8.648;2023-04-09T14:17:35;5.18;;;1.50;;
77457;SDS011;66541;49.346;8.648;2023-04-09T14:20:00;6.45;;;2.25;;
77457;SDS011;66541;49.346;8.648;2023-04-09T14:22:27;7.20;;;1.80;;
77457;SDS011;66541;49.346;8.648;2023-04-09T14:24:53;5.90;;;1.52;;
77457;SDS011;66541;49.346;8.648;2023-04-09T14:27:18;5.53;;;1.65;;
77457;SDS011;66541;49.346;8.648;2023-04-09T14:29:43;5.40;;;1.63;;
77457;SDS011;66541;49.346;8.648;2023-04-09T14:32:09;5.90;;;1.80;;
77457;SDS011;66541;49.346;8.648;2023-04-09T14:34:34;5.53;;;1.70;;
77457;SDS011;66541;49.346;8.648;2023-04-09T14:36:59;6.13;;;1.52;;
77457;SDS011;66541;49.346;8.648;2023-04-09T14:39:25;4.35;;;1.23;;
77457;SDS011;66541;49.346;8.648;2023-04-09T14:41:50;5.88;;;1.80;;
77457;SDS011;66541;49.346;8.648;2023-04-09T14:44:16;6.40;;;1.98;;
77457;SDS011;66541;49.346;8.648;2023-04-09T14:46:41;5.32;;;1.60;;
77457;SDS011;66541;49.346;8.648;2023-04-09T14:49:07;5.20;;;1.40;;
77457;SDS011;66541;49.346;8.648;2023-04-09T14:51:32;5.65;;;1.85;;
77457;SDS011;66541;49.346;8.648;2023-04-09T14:53:58;6.03;;;1.63;;
77457;SDS011;66541;49.346;8.648;2023-04-09T14:56:23;6.13;;;1.95;;
77457;SDS011;66541;49.346;8.648;2023-04-09T14:58:51;5.78;;;1.55;;